Time;durP1;ratioP1;P1;durP2;ratioP2;P2;SDS_P1;SDS_P2;PMS_P1;PMS_P2;Temp;Humidity;BMP_temperature;BMP_pressure;BME280_temperature;BME280_humidity;BME280_pressure;Samples;Min_cycle;Max_cycle;Signal;HPM_P1;HPM_P2
2023/04/14 00:02:03;;;;;;;8.10;3.30;;;;;;;9.22;100.00;99074.73;110126;1278;22375;-69
2023/04/14 00:04:32;;;;;;;6.90;3.20;;;;;;;9.22;100.00;99075.15;110176;1278;22263;-69
2023/04/14 00:07:01;;;;;;;4.60;3.40;;;;;;;9.18;100.00;99076.98;110169;1279;22327;-68
2023/04/14 00:09:30;;;;;;;5.00;3.30;;;;;;;9.17;100.00;99077.84;110132;1278;23114;-68
2023/04/14 00:11:58;;;;;;;4.90;2.90;;;;;;;9.21;100.00;99081.25;110149;1278;22283;-69
2023/04/14 00:14:27;;;;;;;5.00;2.90;;;;;;;9.21;100.00;99082.77;110176;1279;22369;-68
2023/04/14 00:16:59;;;;;;;6.50;3.40;;;;;;;9.19;100.00;99090.54;110122;1274;22269;-70
2023/04/14 00:19:28;;;;;;;5.40;3.30;;;;;;;9.17;100.00;99088.97;110123;1275;22247;-70
2023/04/14 00:21:56;;;;;;;6.60;3.10;;;;;;;9.14;100.00;99092.23;110165;1279;22180;-70
2023/04/14 00:24:25;;;;;;;6.50;3.10;;;;;;;9.11;100.00;99093.83;110117;1279;22423;-69
2023/04/14 00:26:53;;;;;;;7.20;3.10;;;;;;;9.13;100.00;99092.04;110108;1278;23107;-70
2023/04/14 00:29:22;;;;;;;4.80;2.70;;;;;;;9.18;100.00;99091.52;110086;1273;22387;-69
2023/04/14 00:31:50;;;;;;;8.20;2.90;;;;;;;9.14;100.00;99091.64;110126;1278;22217;-71
2023/04/14 00:34:19;;;;;;;3.90;3.00;;;;;;;9.10;100.00;99089.56;110137;1278;22212;-70
2023/04/14 00:36:47;;;;;;;5.20;3.00;;;;;;;9.09;100.00;99083.42;110130;1278;22221;-70
2023/04/14 00:39:15;;;;;;;5.20;2.90;;;;;;;9.05;100.00;99081.48;110177;1278;22202;-71
2023/04/14 00:41:44;;;;;;;9.60;3.20;;;;;;;9.08;100.00;99079.30;110123;1275;22310;-71
2023/04/14 00:44:13;;;;;;;5.50;3.20;;;;;;;9.09;100.00;99076.68;110136;1272;22201;-70
2023/04/14 00:46:42;;;;;;;6.20;3.20;;;;;;;9.08;100.00;99072.29;109962;1275;23500;-70
2023/04/14 00:49:11;;;;;;;5.70;3.10;;;;;;;9.14;100.00;99073.39;109930;1279;22314;-70
2023/04/14 00:51:39;;;;;;;4.40;2.90;;;;;;;9.11;100.00;99074.98;107790;1279;23384;-69
2023/04/14 00:54:08;;;;;;;3.80;2.70;;;;;;;9.10;100.00;99076.52;107168;1274;22857;-69
2023/04/14 00:56:37;;;;;;;5.10;3.10;;;;;;;9.08;100.00;99075.05;107288;1276;22526;-69
2023/04/14 00:59:07;;;;;;;6.60;2.90;;;;;;;9.05;100.00;99078.42;107386;1278;24404;-69
2023/04/14 01:01:36;;;;;;;5.20;3.10;;;;;;;9.06;100.00;99074.19;107336;1278;23514;-70
2023/04/14 01:04:07;;;;;;;4.30;2.70;;;;;;;9.01;100.00;99072.58;108004;1275;22262;-69
2023/04/14 01:06:36;;;;;;;5.90;3.00;;;;;;;8.99;100.00;99074.65;107392;1273;22644;-69
2023/04/14 01:09:05;;;;;;;5.60;3.00;;;;;;;9.02;100.00;99081.33;107202;1273;22553;-70
2023/04/14 01:12:10;;;;;;;4.90;3.00;;;;;;;8.98;100.00;99084.54;107340;1272;25395;-70
2023/04/14 01:14:46;;;;;;;4.20;3.20;;;;;;;8.97;100.00;99080.95;107587;1277;25278;-69
2023/04/14 01:17:20;;;;;;;5.90;3.40;;;;;;;8.99;100.00;99083.61;107410;1273;22556;-68
2023/04/14 01:20:17;;;;;;;5.30;3.10;;;;;;;8.96;100.00;99080.80;109965;1277;22212;-70
2023/04/14 01:22:53;;;;;;;5.40;3.20;;;;;;;9.03;100.00;99086.75;109860;1273;23557;-70
2023/04/14 01:25:36;;;;;;;7.40;3.60;;;;;;;9.07;100.00;99083.48;109893;1278;22029;-70
2023/04/14 01:28:45;;;;;;;4.70;3.30;;;;;;;9.05;100.00;99090.21;109970;1279;22339;-70
2023/04/14 01:31:22;;;;;;;6.20;3.90;;;;;;;9.05;100.00;99089.34;109860;1279;22861;-70
2023/04/14 01:34:01;;;;;;;7.60;3.80;;;;;;;9.00;100.00;99088.01;110133;1279;22425;-69
2023/04/14 01:36:41;;;;;;;5.70;3.40;;;;;;;9.04;100.00;99086.48;109960;1278;22419;-70
2023/04/14 01:39:13;;;;;;;5.70;3.40;;;;;;;9.05;100.00;99090.21;109901;1277;22264;-69
2023/04/14 01:41:43;;;;;;;5.70;3.50;;;;;;;9.02;100.00;99088.21;109408;1278;22623;-69
2023/04/14 01:44:12;;;;;;;6.50;3.40;;;;;;;9.06;100.00;99091.09;107257;1272;24277;-68
2023/04/14 01:46:42;;;;;;;5.00;3.70;;;;;;;9.02;100.00;99086.70;107180;1279;25014;-68
2023/04/14 01:49:10;;;;;;;6.20;3.50;;;;;;;8.98;100.00;99091.05;107248;1278;25353;-69
2023/04/14 01:51:40;;;;;;;6.50;3.80;;;;;;;9.02;100.00;99091.59;107785;1276;25449;-69
2023/04/14 01:54:08;;;;;;;6.60;3.90;;;;;;;9.00;100.00;99089.54;107612;1278;25341;-68
2023/04/14 01:56:37;;;;;;;5.40;3.30;;;;;;;8.98;100.00;99089.48;107390;1279;22726;-69
2023/04/14 01:59:07;;;;;;;6.50;4.40;;;;;;;9.01;100.00;99089.69;107648;1273;22653;-68
2023/04/14 02:01:36;;;;;;;7.00;3.50;;;;;;;8.98;100.00;99091.65;107307;1273;23210;-69
2023/04/14 02:04:06;;;;;;;6.80;3.80;;;;;;;8.96;100.00;99096.83;107313;1279;25369;-69
2023/04/14 02:06:34;;;;;;;8.70;4.40;;;;;;;8.93;100.00;99095.85;107922;1273;25246;-69
2023/04/14 02:09:09;;;;;;;7.00;4.10;;;;;;;8.86;100.00;99096.85;107312;1274;25300;-69
2023/04/14 02:11:37;;;;;;;7.00;4.30;;;;;;;8.82;100.00;99096.20;107410;1277;25285;-69
2023/04/14 02:14:06;;;;;;;7.30;4.20;;;;;;;8.82;100.00;99096.30;107446;1278;22643;-69
2023/04/14 02:16:37;;;;;;;8.00;4.00;;;;;;;8.81;100.00;99096.80;107276;1278;25373;-69
2023/04/14 02:19:07;;;;;;;6.70;4.30;;;;;;;8.81;100.00;99098.65;107208;1279;23309;-69
2023/04/14 02:21:36;;;;;;;7.70;3.90;;;;;;;8.76;100.00;99096.87;107177;1278;24224;-69
2023/04/14 02:24:07;;;;;;;6.90;4.50;;;;;;;8.76;100.00;99097.63;107317;1272;22536;-69
2023/04/14 02:26:36;;;;;;;7.80;4.40;;;;;;;8.77;100.00;99098.72;107154;1273;25499;-69
2023/04/14 02:29:08;;;;;;;7.30;4.70;;;;;;;8.71;100.00;99101.40;110028;1273;22962;-70
2023/04/14 02:31:43;;;;;;;8.60;4.50;;;;;;;8.69;100.00;99100.69;109973;1276;23006;-70
2023/04/14 02:34:14;;;;;;;7.80;4.70;;;;;;;8.66;100.00;99103.73;109938;1279;22205;-70
2023/04/14 02:36:54;;;;;;;7.70;4.60;;;;;;;8.61;100.00;99109.88;109947;1275;22211;-70
2023/04/14 02:39:28;;;;;;;8.20;4.30;;;;;;;8.65;100.00;99109.54;109938;1279;22252;-70
2023/04/14 02:42:05;;;;;;;7.60;4.80;;;;;;;8.65;100.00;99117.90;109890;1279;22931;-70
2023/04/14 02:44:35;;;;;;;10.30;4.40;;;;;;;8.63;100.00;99118.02;109966;1275;22345;-70
2023/04/14 02:47:06;;;;;;;6.90;4.10;;;;;;;8.67;100.00;99122.52;109975;1279;23090;-70
2023/04/14 02:49:43;;;;;;;7.00;3.80;;;;;;;8.68;100.00;99121.80;109922;1278;22221;-70
2023/04/14 02:52:14;;;;;;;6.90;4.40;;;;;;;8.73;100.00;99122.44;109893;1279;22380;-70
2023/04/14 02:54:47;;;;;;;10.70;4.40;;;;;;;8.75;100.00;99123.25;109909;1279;22198;-70
2023/04/14 02:57:16;;;;;;;6.30;4.10;;;;;;;8.75;100.00;99127.00;109887;1279;22430;-70
2023/04/14 02:59:46;;;;;;;7.00;4.60;;;;;;;8.75;100.00;99127.22;109911;1279;22389;-70
2023/04/14 03:02:17;;;;;;;8.50;4.40;;;;;;;8.70;100.00;99129.30;109944;1275;22214;-70
2023/04/14 03:04:52;;;;;;;8.70;4.70;;;;;;;8.69;100.00;99131.95;109966;1279;22388;-70
2023/04/14 03:07:46;;;;;;;7.20;4.50;;;;;;;8.67;100.00;99134.45;110042;1273;22228;-70
2023/04/14 03:10:15;;;;;;;8.90;4.80;;;;;;;8.61;100.00;99133.86;109944;1275;22478;-70
2023/04/14 03:12:48;;;;;;;6.90;4.60;;;;;;;8.67;100.00;99131.79;109905;1279;22350;-70
2023/04/14 03:15:18;;;;;;;5.90;4.30;;;;;;;8.70;100.00;99135.31;109923;1279;22636;-70
2023/04/14 03:17:47;;;;;;;7.40;4.60;;;;;;;8.68;100.00;99137.05;109881;1279;22979;-70
2023/04/14 03:20:18;;;;;;;6.50;4.80;;;;;;;8.71;100.00;99139.98;109870;1279;23468;-70
2023/04/14 03:23:04;;;;;;;7.70;4.70;;;;;;;8.68;100.00;99137.71;110037;1279;22203;-70
2023/04/14 03:25:40;;;;;;;7.90;4.50;;;;;;;8.69;100.00;99133.02;110047;1279;22983;-70
2023/04/14 03:28:14;;;;;;;6.70;4.80;;;;;;;8.66;100.00;99136.08;109987;1275;22348;-71
2023/04/14 03:30:46;;;;;;;7.20;4.90;;;;;;;8.64;100.00;99135.70;109945;1279;22975;-69
2023/04/14 03:33:20;;;;;;;7.60;5.10;;;;;;;8.65;100.00;99133.90;109996;1274;22287;-69
2023/04/14 03:35:49;;;;;;;8.90;4.90;;;;;;;8.62;100.00;99136.80;107783;1279;22543;-69
2023/04/14 03:38:18;;;;;;;9.80;4.80;;;;;;;8.60;100.00;99140.96;107222;1279;22623;-70
2023/04/14 03:40:46;;;;;;;7.00;5.00;;;;;;;8.59;100.00;99143.67;107062;1279;25338;-69
2023/04/14 03:43:21;;;;;;;6.40;4.70;;;;;;;8.59;100.00;99147.20;107037;1275;25337;-69
2023/04/14 03:45:57;;;;;;;6.30;4.60;;;;;;;8.49;100.00;99149.88;107399;1276;23670;-69
2023/04/14 03:48:28;;;;;;;7.60;5.10;;;;;;;8.46;100.00;99153.41;107437;1273;22549;-69
2023/04/14 03:50:58;;;;;;;7.50;5.10;;;;;;;8.45;100.00;99160.13;107134;1276;25424;-69
2023/04/14 03:53:27;;;;;;;7.70;5.20;;;;;;;8.42;100.00;99157.48;109967;1273;22394;-70
2023/04/14 03:55:57;;;;;;;8.00;5.20;;;;;;;8.46;100.00;99159.64;109927;1275;23119;-70
2023/04/14 03:58:27;;;;;;;7.50;5.20;;;;;;;8.46;100.00;99155.58;109938;1278;22345;-70
2023/04/14 04:00:55;;;;;;;6.30;5.10;;;;;;;8.43;100.00;99161.60;109921;1279;22277;-70
2023/04/14 04:03:25;;;;;;;7.30;4.90;;;;;;;8.44;100.00;99167.45;109969;1273;22409;-70
2023/04/14 04:05:53;;;;;;;8.30;5.70;;;;;;;8.46;100.00;99171.63;110027;1279;22463;-70
2023/04/14 04:08:22;;;;;;;8.10;5.30;;;;;;;8.48;100.00;99175.64;109964;1279;22187;-70
2023/04/14 04:10:50;;;;;;;8.80;5.90;;;;;;;8.49;100.00;99182.00;109991;1275;22398;-70
2023/04/14 04:13:19;;;;;;;8.60;5.60;;;;;;;8.46;100.00;99183.30;109882;1279;22238;-70
2023/04/14 04:15:48;;;;;;;8.40;5.50;;;;;;;8.43;100.00;99183.73;108113;1277;22618;-70
2023/04/14 04:18:17;;;;;;;7.90;5.60;;;;;;;8.42;100.00;99188.77;107415;1278;22564;-69
2023/04/14 04:20:45;;;;;;;10.20;6.20;;;;;;;8.43;100.00;99191.48;107309;1273;24213;-69
2023/04/14 04:23:16;;;;;;;9.60;6.20;;;;;;;8.46;100.00;99190.34;107131;1279;22569;-70
2023/04/14 04:25:46;;;;;;;9.70;6.20;;;;;;;8.44;100.00;99192.95;107037;1279;25350;-76
2023/04/14 04:28:43;;;;;;;8.40;5.90;;;;;;;8.46;100.00;99197.29;107253;1276;25418;-74
2023/04/14 04:31:11;;;;;;;9.40;6.30;;;;;;;8.47;100.00;99200.87;107035;1273;22595;-74
2023/04/14 04:33:40;;;;;;;8.20;5.90;;;;;;;8.49;100.00;99201.73;107115;1276;23303;-76
2023/04/14 04:36:12;;;;;;;8.30;6.20;;;;;;;8.53;100.00;99200.05;107032;1278;22543;-76
2023/04/14 04:38:42;;;;;;;9.00;6.10;;;;;;;8.49;100.00;99206.30;107370;1276;25335;-76
2023/04/14 04:41:24;;;;;;;10.40;6.30;;;;;;;8.50;100.00;99212.11;107210;1279;22729;-74
2023/04/14 04:43:53;;;;;;;8.90;7.10;;;;;;;8.48;100.00;99214.27;107712;1274;22513;-76
2023/04/14 04:46:36;;;;;;;8.50;6.40;;;;;;;8.46;100.00;99222.25;107214;1272;24214;-76
2023/04/14 04:49:05;;;;;;;8.30;6.30;;;;;;;8.44;100.00;99218.40;107556;1273;25504;-76
2023/04/14 04:51:34;;;;;;;7.50;6.60;;;;;;;8.45;100.00;99224.46;107196;1275;25300;-76
2023/04/14 04:54:03;;;;;;;8.30;6.50;;;;;;;8.43;100.00;99229.95;107270;1279;22758;-76
2023/04/14 04:56:32;;;;;;;9.30;6.70;;;;;;;8.45;100.00;99234.99;107195;1273;23893;-76
2023/04/14 04:59:01;;;;;;;8.00;5.80;;;;;;;8.47;100.00;99237.10;107140;1277;25367;-75
2023/04/14 05:01:30;;;;;;;7.30;6.00;;;;;;;8.44;100.00;99238.73;107270;1276;24250;-76
2023/04/14 05:04:00;;;;;;;8.50;6.50;;;;;;;8.46;100.00;99243.77;107329;1276;24231;-76
2023/04/14 05:06:29;;;;;;;8.70;6.60;;;;;;;8.48;100.00;99240.70;107325;1272;25651;-74
2023/04/14 05:08:57;;;;;;;9.60;6.40;;;;;;;8.50;100.00;99241.63;107318;1276;22543;-75
2023/04/14 05:11:26;;;;;;;8.40;6.20;;;;;;;8.52;100.00;99244.65;109908;1272;23462;-71
2023/04/14 05:13:55;;;;;;;8.10;6.10;;;;;;;8.49;100.00;99246.13;110109;1278;22327;-72
2023/04/14 05:16:24;;;;;;;8.40;6.10;;;;;;;8.50;100.00;99248.19;110106;1276;22996;-71
2023/04/14 05:18:56;;;;;;;9.70;6.10;;;;;;;8.52;100.00;99253.08;110086;1276;23005;-71
2023/04/14 05:21:25;;;;;;;8.40;5.80;;;;;;;8.49;100.00;99252.85;110072;1273;22222;-72
2023/04/14 05:23:53;;;;;;;9.30;6.30;;;;;;;8.47;100.00;99256.87;110124;1279;23183;-72
2023/04/14 05:26:26;;;;;;;8.10;6.60;;;;;;;8.46;100.00;99256.70;108263;1279;22929;-71
2023/04/14 05:29:15;;;;;;;8.70;6.70;;;;;;;8.43;100.00;99257.39;107323;1279;22543;-72
2023/04/14 05:31:43;;;;;;;8.20;6.70;;;;;;;8.44;100.00;99260.27;107368;1275;22974;-71
2023/04/14 05:34:12;;;;;;;9.40;6.80;;;;;;;8.49;100.00;99258.48;107277;1273;22530;-71
2023/04/14 05:36:44;;;;;;;9.50;7.10;;;;;;;8.47;100.00;99260.71;107271;1279;25378;-71
2023/04/14 05:39:13;;;;;;;8.20;6.70;;;;;;;8.44;100.00;99263.10;107390;1277;22560;-71
2023/04/14 05:41:43;;;;;;;8.30;6.60;;;;;;;8.46;100.00;99265.92;107261;1275;25371;-71
2023/04/14 05:44:12;;;;;;;10.70;7.10;;;;;;;8.47;100.00;99264.77;107371;1257;22570;-71
2023/04/14 05:46:40;;;;;;;10.20;7.10;;;;;;;8.47;100.00;99266.20;107263;1276;22560;-71
2023/04/14 05:49:11;;;;;;;9.80;7.30;;;;;;;8.44;100.00;99268.36;107403;1272;25498;-70
2023/04/14 05:51:40;;;;;;;9.60;7.40;;;;;;;8.47;100.00;99268.96;107338;1272;23367;-70
2023/04/14 05:54:13;;;;;;;9.50;6.90;;;;;;;8.49;100.00;99268.86;107286;1273;22570;-70
2023/04/14 05:56:41;;;;;;;9.00;7.10;;;;;;;8.50;100.00;99270.86;107302;1274;22771;-69
2023/04/14 05:59:09;;;;;;;10.10;7.80;;;;;;;8.50;100.00;99275.24;107316;1272;23780;-70
2023/04/14 06:01:38;;;;;;;8.70;7.20;;;;;;;8.55;100.00;99281.17;107520;1273;26150;-70
2023/04/14 06:04:07;;;;;;;8.40;6.70;;;;;;;8.61;100.00;99289.27;107495;1276;25331;-69
2023/04/14 06:06:37;;;;;;;9.70;7.80;;;;;;;8.62;100.00;99288.17;107502;1254;24359;-70
2023/04/14 06:09:07;;;;;;;12.10;7.80;;;;;;;8.63;100.00;99297.14;107416;1271;22537;-72
2023/04/14 06:11:37;;;;;;;8.70;6.90;;;;;;;8.69;100.00;99294.60;107496;1272;22994;-72
2023/04/14 06:14:06;;;;;;;12.20;7.50;;;;;;;8.72;100.00;99302.25;107581;1271;22519;-71
2023/04/14 06:16:35;;;;;;;9.10;7.10;;;;;;;8.69;100.00;99297.20;107422;1276;25446;-71
2023/04/14 06:19:03;;;;;;;8.00;6.80;;;;;;;8.68;100.00;99305.29;110343;1275;22345;-72
2023/04/14 06:21:34;;;;;;;10.00;7.30;;;;;;;8.74;100.00;99306.98;110369;1276;22205;-71
2023/04/14 06:24:02;;;;;;;9.80;7.50;;;;;;;8.80;100.00;99308.77;110376;1276;22374;-71
2023/04/14 06:26:32;;;;;;;10.70;7.10;;;;;;;8.84;100.00;99311.38;110360;1273;23265;-73
2023/04/14 06:29:01;;;;;;;9.00;7.30;;;;;;;8.84;100.00;99311.71;110224;1271;22370;-73
2023/04/14 06:31:30;;;;;;;9.60;7.20;;;;;;;8.88;100.00;99310.84;110330;1271;24201;-72
2023/04/14 06:33:59;;;;;;;9.70;7.20;;;;;;;8.87;100.00;99313.61;110323;1271;22239;-73
2023/04/14 06:36:28;;;;;;;12.10;7.70;;;;;;;8.90;100.00;99314.31;110251;1269;22318;-72
2023/04/14 06:38:56;;;;;;;9.30;7.20;;;;;;;8.94;100.00;99317.96;110290;1271;22429;-72
2023/04/14 06:41:26;;;;;;;9.10;7.10;;;;;;;8.96;100.00;99316.81;110365;1269;22212;-76
2023/04/14 06:43:56;;;;;;;11.20;7.40;;;;;;;8.93;100.00;99319.46;110336;1270;23048;-76
2023/04/14 06:46:24;;;;;;;10.40;7.30;;;;;;;8.93;100.00;99314.96;110373;1276;22311;-76
2023/04/14 06:48:53;;;;;;;9.80;7.10;;;;;;;8.94;100.00;99318.45;110327;1273;22399;-75
2023/04/14 06:51:22;;;;;;;8.80;7.30;;;;;;;8.95;100.00;99325.77;110362;1273;22171;-76
2023/04/14 06:53:51;;;;;;;9.10;6.90;;;;;;;8.92;100.00;99322.95;110352;1275;22274;-76
2023/04/14 06:56:20;;;;;;;11.80;6.90;;;;;;;8.93;100.00;99322.08;110305;1276;22343;-76
2023/04/14 06:58:54;;;;;;;10.10;7.20;;;;;;;8.96;100.00;99327.61;110377;1269;22289;-76
2023/04/14 07:01:23;;;;;;;8.20;7.00;;;;;;;8.96;100.00;99330.13;110381;1276;22402;-77
2023/04/14 07:03:51;;;;;;;10.70;7.00;;;;;;;8.90;100.00;99333.21;110367;1275;23687;-75
2023/04/14 07:06:19;;;;;;;9.70;7.10;;;;;;;8.90;100.00;99338.14;110320;1276;22191;-75
2023/04/14 07:08:48;;;;;;;10.00;6.90;;;;;;;8.94;100.00;99342.44;110407;1270;22550;-75
2023/04/14 07:11:16;;;;;;;8.20;7.10;;;;;;;8.98;100.00;99346.89;107984;1275;22563;-75
2023/04/14 07:13:45;;;;;;;10.00;7.10;;;;;;;8.99;100.00;99350.96;110314;1276;22529;-76
2023/04/14 07:16:15;;;;;;;8.80;7.30;;;;;;;9.01;100.00;99352.75;110350;1276;22999;-76
2023/04/14 07:18:45;;;;;;;9.80;7.20;;;;;;;8.94;100.00;99352.10;110388;1273;22483;-76
2023/04/14 07:21:14;;;;;;;8.60;6.90;;;;;;;8.92;100.00;99356.93;110417;1275;22936;-76
2023/04/14 07:23:42;;;;;;;9.90;7.00;;;;;;;8.93;100.00;99355.41;110353;1274;22433;-76
2023/04/14 07:26:11;;;;;;;10.10;7.80;;;;;;;8.93;100.00;99357.96;110371;1275;22976;-76
2023/04/14 07:28:39;;;;;;;10.00;7.00;;;;;;;8.94;100.00;99357.91;110374;1273;23141;-76
2023/04/14 07:31:09;;;;;;;9.10;6.90;;;;;;;8.97;100.00;99358.35;110400;1276;22414;-76
2023/04/14 07:33:39;;;;;;;9.80;7.70;;;;;;;8.99;100.00;99358.63;110357;1276;23100;-76
2023/04/14 07:36:08;;;;;;;12.60;8.00;;;;;;;8.98;100.00;99362.48;110411;1276;22389;-76
2023/04/14 07:38:36;;;;;;;9.40;7.90;;;;;;;9.01;100.00;99364.50;110391;1276;22213;-76
2023/04/14 07:41:05;;;;;;;10.50;8.00;;;;;;;9.03;100.00;99368.67;110302;1275;163070;-75
2023/04/14 07:44:17;;;;;;;11.30;8.30;;;;;;;9.03;100.00;99377.46;104276;1307;545932;-67
2023/04/14 07:46:45;;;;;;;10.60;7.60;;;;;;;9.03;100.00;99382.36;106657;1285;25443;-67
2023/04/14 07:49:13;;;;;;;9.40;7.80;;;;;;;9.06;100.00;99376.12;106533;1288;22565;-68
2023/04/14 07:51:43;;;;;;;11.40;9.30;;;;;;;9.04;100.00;99378.83;107405;1284;22660;-69
2023/04/14 07:54:11;;;;;;;12.30;8.40;;;;;;;8.99;100.00;99373.33;106465;1287;23357;-69
2023/04/14 07:56:40;;;;;;;10.30;7.90;;;;;;;8.99;100.00;99372.68;106455;1286;25407;-69
2023/04/14 07:59:11;;;;;;;10.10;8.10;;;;;;;9.00;100.00;99374.42;106477;1287;22560;-68
2023/04/14 08:01:39;;;;;;;10.70;7.90;;;;;;;9.00;100.00;99376.76;106890;1286;22524;-69
2023/04/14 08:04:08;;;;;;;10.90;8.20;;;;;;;9.05;100.00;99375.25;107094;1281;24397;-69
2023/04/14 08:06:37;;;;;;;11.20;8.20;;;;;;;9.10;100.00;99376.93;106911;1282;22629;-69
2023/04/14 08:09:06;;;;;;;10.90;8.40;;;;;;;9.11;100.00;99374.58;106771;1282;25436;-68
2023/04/14 08:11:35;;;;;;;10.00;7.60;;;;;;;9.13;100.00;99374.66;106886;1281;25419;-69
2023/04/14 08:14:03;;;;;;;9.60;8.00;;;;;;;9.19;100.00;99373.89;106930;1281;25522;-68
2023/04/14 08:16:35;;;;;;;10.10;7.60;;;;;;;9.24;100.00;99376.29;106767;1285;25272;-69
2023/04/14 08:19:06;;;;;;;10.40;7.90;;;;;;;9.29;100.00;99375.58;106770;1281;22571;-68
2023/04/14 08:21:34;;;;;;;11.70;8.10;;;;;;;9.36;100.00;99373.84;106815;1285;24186;-69
2023/04/14 08:24:06;;;;;;;9.30;7.90;;;;;;;9.43;100.00;99375.73;106771;1284;25504;-68
2023/04/14 08:26:34;;;;;;;10.70;7.80;;;;;;;9.48;100.00;99374.05;107006;1280;23646;-69
2023/04/14 08:29:03;;;;;;;10.40;8.30;;;;;;;9.47;100.00;99372.09;106848;1286;23304;-68
2023/04/14 08:31:36;;;;;;;10.90;8.80;;;;;;;9.51;100.00;99367.58;106770;1285;25339;-69
2023/04/14 08:34:04;;;;;;;10.20;8.20;;;;;;;9.57;100.00;99368.11;106781;1279;22641;-69
2023/04/14 08:36:33;;;;;;;11.80;8.70;;;;;;;9.58;100.00;99371.52;106907;1281;23051;-68
2023/04/14 08:39:04;;;;;;;11.90;8.00;;;;;;;9.55;100.00;99378.50;106913;1281;27124;-68
2023/04/14 08:41:33;;;;;;;11.30;9.20;;;;;;;9.55;100.00;99378.64;106941;1285;24262;-69
2023/04/14 08:44:01;;;;;;;10.70;8.50;;;;;;;9.48;100.00;99379.86;106903;1286;23333;-68
2023/04/14 08:46:31;;;;;;;11.00;8.40;;;;;;;9.45;100.00;99379.94;106919;1283;22551;-68
2023/04/14 08:49:05;;;;;;;12.00;8.90;;;;;;;9.45;100.00;99378.84;106816;1281;22567;-68
2023/04/14 08:51:34;;;;;;;11.10;8.90;;;;;;;9.46;100.00;99381.06;109713;1281;22252;-69
2023/04/14 08:54:08;;;;;;;11.70;9.40;;;;;;;9.52;100.00;99381.38;109590;1287;22353;-69
2023/04/14 08:56:38;;;;;;;11.40;9.00;;;;;;;9.59;100.00;99377.79;109637;1285;22316;-69
2023/04/14 08:59:07;;;;;;;12.90;9.70;;;;;;;9.67;100.00;99385.00;109578;1287;22988;-68
2023/04/14 09:01:38;;;;;;;11.90;9.10;;;;;;;9.74;100.00;99384.12;109611;1285;22397;-69
2023/04/14 09:04:07;;;;;;;11.10;9.30;;;;;;;9.78;100.00;99384.71;109600;1284;22201;-69
2023/04/14 09:06:37;;;;;;;11.80;9.00;;;;;;;9.86;100.00;99387.36;109788;1276;23447;-69
2023/04/14 09:09:07;;;;;;;12.40;9.10;;;;;;;9.91;100.00;99386.42;109888;1275;22412;-69
2023/04/14 09:11:36;;;;;;;10.40;9.00;;;;;;;9.92;100.00;99387.02;109889;1280;23230;-69
2023/04/14 09:14:04;;;;;;;13.30;9.30;;;;;;;9.96;100.00;99388.48;109869;1273;23257;-69
2023/04/14 09:16:34;;;;;;;11.40;8.20;;;;;;;9.90;100.00;99390.83;109908;1273;22973;-69
2023/04/14 09:19:04;;;;;;;12.40;8.80;;;;;;;9.85;100.00;99384.27;109901;1281;23708;-69
2023/04/14 09:21:36;;;;;;;12.10;8.60;;;;;;;9.85;100.00;99385.18;109880;1273;22218;-69
2023/04/14 09:24:28;;;;;;;13.70;9.20;;;;;;;9.85;100.00;99383.21;109892;1274;22468;-69
2023/04/14 09:27:04;;;;;;;10.00;8.90;;;;;;;9.88;100.00;99381.91;109839;1275;22323;-69
2023/04/14 09:29:32;;;;;;;12.20;9.70;;;;;;;9.92;100.00;99385.33;109867;1278;22427;-69
2023/04/14 09:32:01;;;;;;;12.70;8.90;;;;;;;9.90;100.00;99388.93;109861;1282;22202;-69
2023/04/14 09:34:30;;;;;;;11.90;8.40;;;;;;;9.88;100.00;99388.45;109884;1281;22535;-69
2023/04/14 09:37:05;;;;;;;13.40;9.70;;;;;;;9.92;100.00;99393.33;109937;1280;23121;-69
2023/04/14 09:39:35;;;;;;;12.30;9.20;;;;;;;9.89;100.00;99398.38;109846;1275;22461;-70
2023/04/14 09:42:04;;;;;;;9.90;8.70;;;;;;;9.89;100.00;99393.92;109877;1280;22257;-69
2023/04/14 09:44:32;;;;;;;13.00;9.40;;;;;;;9.95;100.00;99397.61;109875;1281;22397;-69
2023/04/14 09:47:05;;;;;;;9.60;8.60;;;;;;;10.01;100.00;99398.58;109873;1281;22245;-69
2023/04/14 09:49:34;;;;;;;10.50;8.80;;;;;;;10.15;100.00;99398.73;109863;1281;24875;-69
2023/04/14 09:52:06;;;;;;;9.60;8.60;;;;;;;10.25;100.00;99404.90;109316;1281;25362;-69
2023/04/14 09:54:35;;;;;;;11.10;9.30;;;;;;;10.25;100.00;99407.46;107377;1274;22651;-70
2023/04/14 09:57:05;;;;;;;11.90;9.20;;;;;;;10.34;100.00;99413.30;107160;1279;22618;-69
2023/04/14 09:59:35;;;;;;;13.30;9.10;;;;;;;10.35;100.00;99412.10;107145;1278;23804;-68
2023/04/14 10:02:07;;;;;;;9.80;8.70;;;;;;;10.34;100.00;99409.50;107249;1263;25163;-69
2023/04/14 10:04:36;;;;;;;12.50;8.90;;;;;;;10.33;100.00;99412.88;107262;1275;25395;-69
2023/04/14 10:07:11;;;;;;;12.50;8.70;;;;;;;10.36;100.00;99416.56;107332;1274;25257;-69
2023/04/14 10:09:40;;;;;;;11.80;9.50;;;;;;;10.43;100.00;99416.38;107135;1274;25542;-68
2023/04/14 10:12:13;;;;;;;10.80;9.30;;;;;;;10.46;100.00;99409.27;107258;1275;23379;-69
2023/04/14 10:14:43;;;;;;;9.80;8.60;;;;;;;10.44;100.00;99408.09;107446;1275;22531;-68
2023/04/14 10:17:12;;;;;;;13.90;8.90;;;;;;;10.51;100.00;99411.34;107230;1279;22543;-68
2023/04/14 10:19:40;;;;;;;12.40;9.00;;;;;;;10.57;100.00;99412.71;107279;1274;22548;-69
2023/04/14 10:22:09;;;;;;;12.20;8.50;;;;;;;10.63;100.00;99411.17;107229;1280;22573;-69
2023/04/14 10:24:38;;;;;;;9.60;8.60;;;;;;;10.68;100.00;99408.91;107697;1278;25271;-69
2023/04/14 10:27:07;;;;;;;10.40;9.10;;;;;;;10.72;100.00;99407.30;107152;1276;25338;-69
2023/04/14 10:29:39;;;;;;;12.40;9.50;;;;;;;10.76;100.00;99406.80;107111;1279;22744;-69
2023/04/14 10:32:08;;;;;;;12.10;9.30;;;;;;;10.72;100.00;99408.45;107382;1276;22533;-69
2023/04/14 10:34:36;;;;;;;11.70;9.50;;;;;;;10.76;100.00;99406.96;107019;1274;25258;-69
2023/04/14 10:37:11;;;;;;;13.60;8.90;;;;;;;10.90;100.00;99408.63;106867;1279;22648;-69
2023/04/14 10:39:41;;;;;;;12.00;9.40;;;;;;;11.09;100.00;99410.06;107235;1281;24196;-69
2023/04/14 10:42:09;;;;;;;12.40;9.20;;;;;;;11.25;100.00;99406.30;107191;1281;26205;-68
2023/04/14 10:44:38;;;;;;;10.80;8.30;;;;;;;11.35;100.00;99405.42;107197;1279;25876;-69
2023/04/14 10:47:06;;;;;;;11.70;8.60;;;;;;;11.43;100.00;99401.87;107291;1275;25324;-69
2023/04/14 10:49:37;;;;;;;10.70;8.10;;;;;;;11.44;100.00;99403.81;107199;1281;23276;-69
2023/04/14 10:52:12;;;;;;;9.90;8.40;;;;;;;11.47;100.00;99406.84;107340;1276;22560;-69
2023/04/14 10:54:52;;;;;;;9.80;8.20;;;;;;;11.46;100.00;99410.56;107275;1275;22554;-69
2023/04/14 10:57:21;;;;;;;10.50;8.00;;;;;;;11.37;100.00;99407.86;109892;1281;22373;-69
2023/04/14 10:59:56;;;;;;;10.80;8.40;;;;;;;11.33;100.00;99406.81;109883;1279;22685;-69
2023/04/14 11:02:31;;;;;;;10.60;8.40;;;;;;;11.25;100.00;99403.75;109899;1272;22945;-69
2023/04/14 11:05:09;;;;;;;11.40;8.60;;;;;;;11.17;100.00;99404.35;109861;1281;22347;-69
2023/04/14 11:07:53;;;;;;;12.60;8.30;;;;;;;11.18;100.00;99403.05;109936;1280;22399;-69
2023/04/14 11:10:21;;;;;;;10.70;8.00;;;;;;;11.08;100.00;99405.56;109730;1281;22325;-69
2023/04/14 11:13:11;;;;;;;10.70;8.60;;;;;;;11.09;100.00;99408.27;109856;1278;22634;-69
2023/04/14 11:16:13;;;;;;;9.70;7.60;;;;;;;10.96;100.00;99407.60;109858;1275;22221;-69
2023/04/14 11:18:44;;;;;;;11.10;8.90;;;;;;;10.88;100.00;99407.39;109787;1279;22453;-69
2023/04/14 11:21:15;;;;;;;14.40;8.10;;;;;;;10.80;100.00;99409.50;109910;1274;22281;-69
2023/04/14 11:23:46;;;;;;;14.00;8.50;;;;;;;10.81;100.00;99409.05;108746;1281;22552;-69
2023/04/14 11:26:23;;;;;;;11.10;8.20;;;;;;;10.80;100.00;99410.96;107141;1276;22994;-69
2023/04/14 11:28:56;;;;;;;11.80;8.40;;;;;;;10.80;100.00;99415.06;107166;1280;23411;-69
2023/04/14 11:31:26;;;;;;;11.10;8.00;;;;;;;10.75;100.00;99411.80;107403;1275;23606;-68
2023/04/14 11:33:55;;;;;;;11.30;7.70;;;;;;;10.68;100.00;99410.91;107322;1280;22526;-69
2023/04/14 11:36:23;;;;;;;12.90;8.10;;;;;;;10.67;100.00;99412.57;107217;1279;22550;-69
2023/04/14 11:38:52;;;;;;;13.50;8.50;;;;;;;10.63;100.00;99414.43;107218;1280;22658;-68
2023/04/14 11:41:21;;;;;;;11.60;8.50;;;;;;;10.61;100.00;99408.78;107324;1277;24271;-69